Decoded Metar for OAIX ( in ) (IATA:) | Meteo·Mobile Aviation Weather
aviador You're here:

OAIX Decoded Metar

in
Report Time2018-09-21 12:23:00
UTC Time2018-09-21 12:41:56
Flight Rules ifr IFR
Wind120° at 14 Gusting to 24 kt
W.Decomp.*RWY 03: 14.0 kt RCW
W.Rank120° ranks 29
Current wind is above 120° avg. (6.2)
Visibility4000 m
Phenomena:Light Blowing Widespread Dust
Clouds:Scattered 085 Hf
Expected CloudBase > 8,000 ft AGL from Temp-Dew spread
CeilingNone
Temp26°C
Dew Point06°C (28% RH)
AAT20.1°C
QNH1015 hPa
Raw Report
SPECI OAIX 211223Z 12014G24KT 4000 -BLDU SCT085 26/06 A2996 RMK AO2A
SLP067 $=

Extra information for OAIX:More info

Social comments